sensor_id;sensor_type;location;lat;lon;timestamp;P1;durP1;ratioP1;P2;durP2;ratioP2
20754;SDS011;26385;48.470;7.938;2022-07-29T00:01:59;5.28;;;4.88;;
20754;SDS011;26385;48.470;7.938;2022-07-29T00:04:25;8.75;;;5.28;;
20754;SDS011;26385;48.470;7.938;2022-07-29T00:06:50;5.78;;;5.18;;
20754;SDS011;26385;48.470;7.938;2022-07-29T00:09:15;5.80;;;5.03;;
20754;SDS011;26385;48.470;7.938;2022-07-29T00:11:40;5.85;;;5.28;;
20754;SDS011;26385;48.470;7.938;2022-07-29T00:14:06;7.82;;;5.50;;
20754;SDS011;26385;48.470;7.938;2022-07-29T00:16:32;5.82;;;5.28;;
20754;SDS011;26385;48.470;7.938;2022-07-29T00:18:57;6.28;;;5.10;;
20754;SDS011;26385;48.470;7.938;2022-07-29T00:21:22;6.60;;;5.20;;
20754;SDS011;26385;48.470;7.938;2022-07-29T00:23:47;6.05;;;5.30;;
20754;SDS011;26385;48.470;7.938;2022-07-29T00:26:13;6.47;;;5.07;;
20754;SDS011;26385;48.470;7.938;2022-07-29T00:28:38;5.97;;;5.38;;
20754;SDS011;26385;48.470;7.938;2022-07-29T00:31:03;6.82;;;5.13;;
20754;SDS011;26385;48.470;7.938;2022-07-29T00:33:28;6.28;;;5.50;;
20754;SDS011;26385;48.470;7.938;2022-07-29T00:35:54;5.85;;;5.30;;
20754;SDS011;26385;48.470;7.938;2022-07-29T00:38:19;5.60;;;5.10;;
20754;SDS011;26385;48.470;7.938;2022-07-29T00:40:45;7.43;;;5.15;;
20754;SDS011;26385;48.470;7.938;2022-07-29T00:43:11;6.45;;;5.35;;
20754;SDS011;26385;48.470;7.938;2022-07-29T00:45:38;6.57;;;5.53;;
20754;SDS011;26385;48.470;7.938;2022-07-29T00:48:04;6.50;;;5.28;;
20754;SDS011;26385;48.470;7.938;2022-07-29T00:50:30;6.10;;;5.32;;
20754;SDS011;26385;48.470;7.938;2022-07-29T00:52:57;6.28;;;5.45;;
20754;SDS011;26385;48.470;7.938;2022-07-29T00:55:23;8.85;;;5.38;;
20754;SDS011;26385;48.470;7.938;2022-07-29T00:57:48;6.35;;;5.43;;
20754;SDS011;26385;48.470;7.938;2022-07-29T01:00:16;6.30;;;5.70;;
20754;SDS011;26385;48.470;7.938;2022-07-29T01:02:47;7.65;;;5.90;;
20754;SDS011;26385;48.470;7.938;2022-07-29T01:05:19;5.88;;;5.38;;
20754;SDS011;26385;48.470;7.938;2022-07-29T01:07:46;6.32;;;5.60;;
20754;SDS011;26385;48.470;7.938;2022-07-29T01:10:14;6.32;;;5.70;;
20754;SDS011;26385;48.470;7.938;2022-07-29T01:12:41;5.78;;;5.25;;
20754;SDS011;26385;48.470;7.938;2022-07-29T01:15:08;6.63;;;5.53;;
20754;SDS011;26385;48.470;7.938;2022-07-29T01:17:43;6.35;;;5.47;;
20754;SDS011;26385;48.470;7.938;2022-07-29T01:20:17;6.95;;;5.68;;
20754;SDS011;26385;48.470;7.938;2022-07-29T01:23:01;6.00;;;5.50;;
20754;SDS011;26385;48.470;7.938;2022-07-29T01:25:53;7.18;;;5.70;;
20754;SDS011;26385;48.470;7.938;2022-07-29T01:31:11;6.22;;;5.32;;
20754;SDS011;26385;48.470;7.938;2022-07-29T01:34:04;6.00;;;5.45;;
20754;SDS011;26385;48.470;7.938;2022-07-29T01:36:35;6.70;;;6.00;;
20754;SDS011;26385;48.470;7.938;2022-07-29T01:39:07;6.20;;;5.60;;
20754;SDS011;26385;48.470;7.938;2022-07-29T01:41:37;6.93;;;6.13;;
20754;SDS011;26385;48.470;7.938;2022-07-29T01:44:27;6.22;;;5.65;;
20754;SDS011;26385;48.470;7.938;2022-07-29T01:46:58;6.43;;;5.82;;
20754;SDS011;26385;48.470;7.938;2022-07-29T01:49:30;6.30;;;5.50;;
20754;SDS011;26385;48.470;7.938;2022-07-29T01:52:00;6.63;;;5.90;;
20754;SDS011;26385;48.470;7.938;2022-07-29T01:56:59;6.18;;;5.57;;
20754;SDS011;26385;48.470;7.938;2022-07-29T01:59:26;6.30;;;5.70;;
20754;SDS011;26385;48.470;7.938;2022-07-29T02:01:55;6.38;;;5.70;;
20754;SDS011;26385;48.470;7.938;2022-07-29T02:04:22;6.38;;;5.78;;
20754;SDS011;26385;48.470;7.938;2022-07-29T02:06:50;6.53;;;5.85;;
20754;SDS011;26385;48.470;7.938;2022-07-29T02:09:17;6.38;;;5.72;;
20754;SDS011;26385;48.470;7.938;2022-07-29T02:11:47;9.23;;;6.15;;
20754;SDS011;26385;48.470;7.938;2022-07-29T02:14:17;7.93;;;5.97;;
20754;SDS011;26385;48.470;7.938;2022-07-29T02:16:45;6.30;;;5.80;;
20754;SDS011;26385;48.470;7.938;2022-07-29T02:19:12;6.80;;;6.18;;
20754;SDS011;26385;48.470;7.938;2022-07-29T02:21:39;6.85;;;6.25;;
20754;SDS011;26385;48.470;7.938;2022-07-29T02:24:05;6.85;;;6.20;;
20754;SDS011;26385;48.470;7.938;2022-07-29T02:26:33;6.65;;;6.05;;
20754;SDS011;26385;48.470;7.938;2022-07-29T02:28:59;6.93;;;5.93;;
20754;SDS011;26385;48.470;7.938;2022-07-29T02:31:26;6.65;;;5.95;;
20754;SDS011;26385;48.470;7.938;2022-07-29T02:33:57;6.75;;;6.05;;
20754;SDS011;26385;48.470;7.938;2022-07-29T02:36:24;6.38;;;5.82;;
20754;SDS011;26385;48.470;7.938;2022-07-29T02:38:50;6.70;;;5.80;;
20754;SDS011;26385;48.470;7.938;2022-07-29T02:41:28;6.50;;;5.65;;
20754;SDS011;26385;48.470;7.938;2022-07-29T02:43:54;6.78;;;6.18;;
20754;SDS011;26385;48.470;7.938;2022-07-29T02:46:29;8.10;;;6.05;;
20754;SDS011;26385;48.470;7.938;2022-07-29T02:49:17;7.78;;;6.25;;
20754;SDS011;26385;48.470;7.938;2022-07-29T02:51:51;7.53;;;6.00;;
20754;SDS011;26385;48.470;7.938;2022-07-29T02:54:25;6.32;;;5.72;;
20754;SDS011;26385;48.470;7.938;2022-07-29T02:56:55;6.93;;;5.90;;
20754;SDS011;26385;48.470;7.938;2022-07-29T02:59:26;6.40;;;5.80;;
20754;SDS011;26385;48.470;7.938;2022-07-29T03:01:55;6.75;;;6.15;;
20754;SDS011;26385;48.470;7.938;2022-07-29T03:04:24;6.90;;;6.20;;
20754;SDS011;26385;48.470;7.938;2022-07-29T03:06:53;7.53;;;6.20;;
20754;SDS011;26385;48.470;7.938;2022-07-29T03:09:20;7.45;;;6.72;;
20754;SDS011;26385;48.470;7.938;2022-07-29T03:11:47;7.18;;;5.82;;
20754;SDS011;26385;48.470;7.938;2022-07-29T03:14:13;6.82;;;6.10;;
20754;SDS011;26385;48.470;7.938;2022-07-29T03:16:39;6.90;;;6.30;;
20754;SDS011;26385;48.470;7.938;2022-07-29T03:19:04;6.65;;;6.05;;
20754;SDS011;26385;48.470;7.938;2022-07-29T03:21:30;6.25;;;5.65;;
20754;SDS011;26385;48.470;7.938;2022-07-29T03:23:56;6.88;;;6.20;;
20754;SDS011;26385;48.470;7.938;2022-07-29T03:26:21;7.22;;;6.10;;
20754;SDS011;26385;48.470;7.938;2022-07-29T03:28:46;6.90;;;6.28;;
20754;SDS011;26385;48.470;7.938;2022-07-29T03:31:12;8.20;;;5.80;;
20754;SDS011;26385;48.470;7.938;2022-07-29T03:33:37;6.53;;;5.85;;
20754;SDS011;26385;48.470;7.938;2022-07-29T03:36:02;6.78;;;6.18;;
20754;SDS011;26385;48.470;7.938;2022-07-29T03:38:28;6.68;;;6.05;;
20754;SDS011;26385;48.470;7.938;2022-07-29T03:41:04;7.13;;;6.20;;
20754;SDS011;26385;48.470;7.938;2022-07-29T03:43:33;9.32;;;6.20;;
20754;SDS011;26385;48.470;7.938;2022-07-29T03:46:01;6.68;;;5.93;;
20754;SDS011;26385;48.470;7.938;2022-07-29T03:48:29;6.60;;;6.00;;
20754;SDS011;26385;48.470;7.938;2022-07-29T03:50:57;7.93;;;6.20;;
20754;SDS011;26385;48.470;7.938;2022-07-29T03:53:23;6.35;;;5.75;;
20754;SDS011;26385;48.470;7.938;2022-07-29T03:55:50;6.93;;;6.22;;
20754;SDS011;26385;48.470;7.938;2022-07-29T03:58:19;8.35;;;6.30;;
20754;SDS011;26385;48.470;7.938;2022-07-29T04:00:45;7.43;;;6.72;;
20754;SDS011;26385;48.470;7.938;2022-07-29T04:03:11;7.13;;;6.43;;
20754;SDS011;26385;48.470;7.938;2022-07-29T04:05:38;7.40;;;6.63;;
20754;SDS011;26385;48.470;7.938;2022-07-29T04:08:03;7.40;;;5.80;;
20754;SDS011;26385;48.470;7.938;2022-07-29T04:10:28;6.53;;;5.93;;
20754;SDS011;26385;48.470;7.938;2022-07-29T04:12:54;7.38;;;6.68;;
20754;SDS011;26385;48.470;7.938;2022-07-29T04:15:19;7.72;;;6.40;;
20754;SDS011;26385;48.470;7.938;2022-07-29T04:17:44;7.85;;;6.60;;
20754;SDS011;26385;48.470;7.938;2022-07-29T04:20:10;8.30;;;5.93;;
20754;SDS011;26385;48.470;7.938;2022-07-29T04:22:38;7.82;;;6.38;;
20754;SDS011;26385;48.470;7.938;2022-07-29T04:25:04;6.78;;;6.07;;
20754;SDS011;26385;48.470;7.938;2022-07-29T04:27:29;9.25;;;6.00;;
20754;SDS011;26385;48.470;7.938;2022-07-29T04:29:54;6.93;;;6.22;;
20754;SDS011;26385;48.470;7.938;2022-07-29T04:32:19;7.18;;;5.95;;
20754;SDS011;26385;48.470;7.938;2022-07-29T04:34:45;8.77;;;6.20;;
20754;SDS011;26385;48.470;7.938;2022-07-29T04:37:11;7.05;;;6.45;;
20754;SDS011;26385;48.470;7.938;2022-07-29T04:39:36;7.40;;;6.63;;
20754;SDS011;26385;48.470;7.938;2022-07-29T04:42:02;8.73;;;6.05;;
20754;SDS011;26385;48.470;7.938;2022-07-29T04:44:27;7.05;;;6.40;;
20754;SDS011;26385;48.470;7.938;2022-07-29T04:46:53;7.13;;;6.43;;
20754;SDS011;26385;48.470;7.938;2022-07-29T04:49:18;7.32;;;6.63;;
20754;SDS011;26385;48.470;7.938;2022-07-29T04:51:44;7.07;;;6.43;;
20754;SDS011;26385;48.470;7.938;2022-07-29T04:54:09;9.98;;;6.68;;
20754;SDS011;26385;48.470;7.938;2022-07-29T04:56:34;7.53;;;6.82;;
20754;SDS011;26385;48.470;7.938;2022-07-29T04:58:59;7.15;;;6.40;;
20754;SDS011;26385;48.470;7.938;2022-07-29T05:01:25;6.90;;;6.30;;
20754;SDS011;26385;48.470;7.938;2022-07-29T05:03:50;7.63;;;6.40;;
20754;SDS011;26385;48.470;7.938;2022-07-29T05:06:15;7.20;;;6.50;;
20754;SDS011;26385;48.470;7.938;2022-07-29T05:08:40;6.95;;;6.35;;
20754;SDS011;26385;48.470;7.938;2022-07-29T05:11:06;6.85;;;6.15;;
20754;SDS011;26385;48.470;7.938;2022-07-29T05:13:31;7.75;;;6.45;;
20754;SDS011;26385;48.470;7.938;2022-07-29T05:15:56;6.72;;;6.15;;
20754;SDS011;26385;48.470;7.938;2022-07-29T05:18:23;8.10;;;6.57;;
20754;SDS011;26385;48.470;7.938;2022-07-29T05:20:49;6.70;;;6.10;;
20754;SDS011;26385;48.470;7.938;2022-07-29T05:23:14;7.90;;;6.45;;
20754;SDS011;26385;48.470;7.938;2022-07-29T05:25:39;7.32;;;6.63;;
20754;SDS011;26385;48.470;7.938;2022-07-29T05:28:05;8.15;;;6.75;;
20754;SDS011;26385;48.470;7.938;2022-07-29T05:30:30;6.78;;;6.18;;
20754;SDS011;26385;48.470;7.938;2022-07-29T05:32:55;9.50;;;8.02;;
20754;SDS011;26385;48.470;7.938;2022-07-29T05:35:21;9.45;;;7.70;;
20754;SDS011;26385;48.470;7.938;2022-07-29T05:37:46;10.18;;;7.60;;
20754;SDS011;26385;48.470;7.938;2022-07-29T05:40:11;10.02;;;6.78;;
20754;SDS011;26385;48.470;7.938;2022-07-29T05:42:37;7.45;;;6.50;;
20754;SDS011;26385;48.470;7.938;2022-07-29T05:45:02;7.97;;;7.07;;
20754;SDS011;26385;48.470;7.938;2022-07-29T05:47:28;7.10;;;6.45;;
20754;SDS011;26385;48.470;7.938;2022-07-29T05:49:53;8.13;;;7.32;;
20754;SDS011;26385;48.470;7.938;2022-07-29T05:52:18;6.90;;;6.30;;
20754;SDS011;26385;48.470;7.938;2022-07-29T05:54:44;7.15;;;6.45;;
20754;SDS011;26385;48.470;7.938;2022-07-29T05:57:19;7.25;;;6.15;;
20754;SDS011;26385;48.470;7.938;2022-07-29T05:59:46;8.45;;;7.10;;
20754;SDS011;26385;48.470;7.938;2022-07-29T06:02:12;10.35;;;6.50;;
20754;SDS011;26385;48.470;7.938;2022-07-29T06:04:37;6.40;;;5.80;;
20754;SDS011;26385;48.470;7.938;2022-07-29T06:07:03;6.65;;;6.05;;
20754;SDS011;26385;48.470;7.938;2022-07-29T06:09:28;6.53;;;5.85;;
20754;SDS011;26385;48.470;7.938;2022-07-29T06:11:54;7.65;;;6.40;;
20754;SDS011;26385;48.470;7.938;2022-07-29T06:14:19;6.68;;;5.95;;
20754;SDS011;26385;48.470;7.938;2022-07-29T06:16:44;6.93;;;6.32;;
20754;SDS011;26385;48.470;7.938;2022-07-29T06:19:10;6.35;;;5.78;;
20754;SDS011;26385;48.470;7.938;2022-07-29T06:21:35;6.63;;;5.93;;
20754;SDS011;26385;48.470;7.938;2022-07-29T06:24:01;7.85;;;5.80;;
20754;SDS011;26385;48.470;7.938;2022-07-29T06:26:26;6.70;;;5.88;;
20754;SDS011;26385;48.470;7.938;2022-07-29T06:28:52;7.80;;;6.20;;
20754;SDS011;26385;48.470;7.938;2022-07-29T06:31:17;6.07;;;5.50;;
20754;SDS011;26385;48.470;7.938;2022-07-29T06:33:42;6.27;;;5.43;;
20754;SDS011;26385;48.470;7.938;2022-07-29T06:36:07;7.13;;;5.57;;
20754;SDS011;26385;48.470;7.938;2022-07-29T06:38:33;6.45;;;5.68;;
20754;SDS011;26385;48.470;7.938;2022-07-29T06:40:59;9.02;;;5.55;;
20754;SDS011;26385;48.470;7.938;2022-07-29T06:43:25;7.85;;;5.93;;
20754;SDS011;26385;48.470;7.938;2022-07-29T06:45:51;6.60;;;5.90;;
20754;SDS011;26385;48.470;7.938;2022-07-29T06:48:16;7.57;;;6.82;;
20754;SDS011;26385;48.470;7.938;2022-07-29T06:50:42;7.60;;;6.20;;
20754;SDS011;26385;48.470;7.938;2022-07-29T06:53:07;7.25;;;6.00;;
20754;SDS011;26385;48.470;7.938;2022-07-29T06:55:32;6.07;;;5.57;;
20754;SDS011;26385;48.470;7.938;2022-07-29T06:57:58;6.53;;;5.50;;
20754;SDS011;26385;48.470;7.938;2022-07-29T07:00:23;7.60;;;5.57;;
20754;SDS011;26385;48.470;7.938;2022-07-29T07:02:48;6.43;;;5.68;;
20754;SDS011;26385;48.470;7.938;2022-07-29T07:05:14;7.65;;;5.60;;
20754;SDS011;26385;48.470;7.938;2022-07-29T07:07:39;6.50;;;5.90;;
20754;SDS011;26385;48.470;7.938;2022-07-29T07:10:04;8.65;;;5.78;;
20754;SDS011;26385;48.470;7.938;2022-07-29T07:12:30;5.95;;;5.32;;
20754;SDS011;26385;48.470;7.938;2022-07-29T07:14:55;6.00;;;5.43;;
20754;SDS011;26385;48.470;7.938;2022-07-29T07:17:20;11.35;;;5.82;;
20754;SDS011;26385;48.470;7.938;2022-07-29T07:19:47;6.80;;;5.40;;
20754;SDS011;26385;48.470;7.938;2022-07-29T07:22:12;8.05;;;5.43;;
20754;SDS011;26385;48.470;7.938;2022-07-29T07:24:37;7.67;;;5.63;;
20754;SDS011;26385;48.470;7.938;2022-07-29T07:27:02;5.90;;;5.30;;
20754;SDS011;26385;48.470;7.938;2022-07-29T07:29:28;6.03;;;5.30;;
20754;SDS011;26385;48.470;7.938;2022-07-29T07:31:53;6.63;;;5.63;;
20754;SDS011;26385;48.470;7.938;2022-07-29T07:34:19;6.47;;;5.40;;
20754;SDS011;26385;48.470;7.938;2022-07-29T07:36:44;5.70;;;5.20;;
20754;SDS011;26385;48.470;7.938;2022-07-29T07:39:09;5.80;;;5.20;;
20754;SDS011;26385;48.470;7.938;2022-07-29T07:41:34;5.90;;;5.25;;
20754;SDS011;26385;48.470;7.938;2022-07-29T07:44:00;5.83;;;5.23;;
20754;SDS011;26385;48.470;7.938;2022-07-29T07:46:25;5.10;;;4.60;;
20754;SDS011;26385;48.470;7.938;2022-07-29T07:48:50;7.47;;;4.75;;
20754;SDS011;26385;48.470;7.938;2022-07-29T07:51:17;9.15;;;4.47;;
20754;SDS011;26385;48.470;7.938;2022-07-29T07:53:42;5.65;;;5.05;;
20754;SDS011;26385;48.470;7.938;2022-07-29T07:56:09;5.85;;;4.60;;
20754;SDS011;26385;48.470;7.938;2022-07-29T07:58:34;6.82;;;5.13;;
20754;SDS011;26385;48.470;7.938;2022-07-29T08:01:00;6.78;;;4.20;;
20754;SDS011;26385;48.470;7.938;2022-07-29T08:03:25;5.03;;;3.83;;
20754;SDS011;26385;48.470;7.938;2022-07-29T08:05:50;9.33;;;4.53;;
20754;SDS011;26385;48.470;7.938;2022-07-29T08:08:16;4.97;;;3.90;;
20754;SDS011;26385;48.470;7.938;2022-07-29T08:10:42;9.50;;;3.92;;
20754;SDS011;26385;48.470;7.938;2022-07-29T08:13:24;4.32;;;3.92;;
20754;SDS011;26385;48.470;7.938;2022-07-29T08:15:53;7.20;;;4.15;;
20754;SDS011;26385;48.470;7.938;2022-07-29T08:18:22;6.32;;;4.57;;
20754;SDS011;26385;48.470;7.938;2022-07-29T08:20:51;16.90;;;4.75;;
20754;SDS011;26385;48.470;7.938;2022-07-29T08:23:17;8.88;;;4.38;;
20754;SDS011;26385;48.470;7.938;2022-07-29T08:25:43;4.50;;;3.97;;
20754;SDS011;26385;48.470;7.938;2022-07-29T08:28:09;5.38;;;3.88;;
20754;SDS011;26385;48.470;7.938;2022-07-29T08:30:34;6.45;;;4.28;;
20754;SDS011;26385;48.470;7.938;2022-07-29T08:33:00;7.30;;;4.30;;
20754;SDS011;26385;48.470;7.938;2022-07-29T08:35:25;4.70;;;4.20;;
20754;SDS011;26385;48.470;7.938;2022-07-29T08:37:51;7.97;;;4.60;;
20754;SDS011;26385;48.470;7.938;2022-07-29T08:40:17;8.65;;;4.57;;
20754;SDS011;26385;48.470;7.938;2022-07-29T08:42:44;7.85;;;4.45;;
20754;SDS011;26385;48.470;7.938;2022-07-29T08:45:09;4.93;;;3.80;;
20754;SDS011;26385;48.470;7.938;2022-07-29T08:47:34;6.68;;;3.95;;
20754;SDS011;26385;48.470;7.938;2022-07-29T08:50:04;8.05;;;4.40;;
20754;SDS011;26385;48.470;7.938;2022-07-29T08:52:30;7.40;;;4.40;;
20754;SDS011;26385;48.470;7.938;2022-07-29T08:55:00;10.18;;;4.28;;
20754;SDS011;26385;48.470;7.938;2022-07-29T08:57:26;7.28;;;4.35;;
20754;SDS011;26385;48.470;7.938;2022-07-29T08:59:52;7.75;;;4.78;;
20754;SDS011;26385;48.470;7.938;2022-07-29T09:02:20;5.40;;;4.07;;
20754;SDS011;26385;48.470;7.938;2022-07-29T09:04:46;6.13;;;4.03;;
20754;SDS011;26385;48.470;7.938;2022-07-29T09:07:16;5.13;;;4.28;;
20754;SDS011;26385;48.470;7.938;2022-07-29T09:09:43;5.75;;;4.13;;
20754;SDS011;26385;48.470;7.938;2022-07-29T09:12:10;5.32;;;4.00;;
20754;SDS011;26385;48.470;7.938;2022-07-29T09:14:39;7.47;;;4.30;;
20754;SDS011;26385;48.470;7.938;2022-07-29T09:17:04;4.60;;;4.03;;
20754;SDS011;26385;48.470;7.938;2022-07-29T09:19:30;5.97;;;4.40;;
20754;SDS011;26385;48.470;7.938;2022-07-29T09:21:59;5.53;;;3.80;;
20754;SDS011;26385;48.470;7.938;2022-07-29T09:24:26;5.35;;;3.95;;
20754;SDS011;26385;48.470;7.938;2022-07-29T09:27:01;4.55;;;3.92;;
20754;SDS011;26385;48.470;7.938;2022-07-29T09:29:27;6.25;;;4.13;;
20754;SDS011;26385;48.470;7.938;2022-07-29T09:31:53;8.80;;;4.63;;
20754;SDS011;26385;48.470;7.938;2022-07-29T09:34:27;4.80;;;4.00;;
20754;SDS011;26385;48.470;7.938;2022-07-29T09:36:53;5.15;;;4.07;;
20754;SDS011;26385;48.470;7.938;2022-07-29T09:39:33;5.63;;;3.92;;
20754;SDS011;26385;48.470;7.938;2022-07-29T09:42:02;6.55;;;4.00;;
20754;SDS011;26385;48.470;7.938;2022-07-29T09:47:27;5.63;;;3.92;;
20754;SDS011;26385;48.470;7.938;2022-07-29T09:50:06;6.15;;;3.50;;
20754;SDS011;26385;48.470;7.938;2022-07-29T09:52:31;6.57;;;3.70;;
20754;SDS011;26385;48.470;7.938;2022-07-29T09:55:10;6.80;;;3.90;;
20754;SDS011;26385;48.470;7.938;2022-07-29T09:57:36;4.22;;;3.72;;
20754;SDS011;26385;48.470;7.938;2022-07-29T10:00:11;7.18;;;3.60;;
20754;SDS011;26385;48.470;7.938;2022-07-29T10:02:41;6.05;;;3.90;;
20754;SDS011;26385;48.470;7.938;2022-07-29T10:05:21;7.43;;;3.80;;
20754;SDS011;26385;48.470;7.938;2022-07-29T10:07:53;5.45;;;3.90;;
20754;SDS011;26385;48.470;7.938;2022-07-29T10:10:27;4.00;;;3.60;;
20754;SDS011;26385;48.470;7.938;2022-07-29T10:12:55;4.40;;;3.70;;
20754;SDS011;26385;48.470;7.938;2022-07-29T10:15:32;6.20;;;3.45;;
20754;SDS011;26385;48.470;7.938;2022-07-29T10:18:02;4.32;;;3.33;;
20754;SDS011;26385;48.470;7.938;2022-07-29T10:20:27;4.70;;;3.00;;
20754;SDS011;26385;48.470;7.938;2022-07-29T10:22:53;3.83;;;3.33;;
20754;SDS011;26385;48.470;7.938;2022-07-29T10:25:21;4.13;;;3.60;;
20754;SDS011;26385;48.470;7.938;2022-07-29T10:27:48;3.60;;;3.30;;
20754;SDS011;26385;48.470;7.938;2022-07-29T10:30:16;5.78;;;3.25;;
20754;SDS011;26385;48.470;7.938;2022-07-29T10:32:51;3.75;;;3.30;;
20754;SDS011;26385;48.470;7.938;2022-07-29T10:40:57;6.25;;;3.70;;
20754;SDS011;26385;48.470;7.938;2022-07-29T10:44:01;8.30;;;3.95;;
20754;SDS011;26385;48.470;7.938;2022-07-29T10:46:34;7.22;;;4.18;;
20754;SDS011;26385;48.470;7.938;2022-07-29T10:54:17;3.63;;;3.30;;
20754;SDS011;26385;48.470;7.938;2022-07-29T10:57:10;3.70;;;3.30;;
20754;SDS011;26385;48.470;7.938;2022-07-29T10:59:39;6.00;;;3.50;;
20754;SDS011;26385;48.470;7.938;2022-07-29T11:05:14;4.88;;;3.33;;
20754;SDS011;26385;48.470;7.938;2022-07-29T11:10:33;6.00;;;3.83;;
20754;SDS011;26385;48.470;7.938;2022-07-29T11:12:59;4.47;;;3.70;;
20754;SDS011;26385;48.470;7.938;2022-07-29T11:15:24;4.57;;;3.50;;
20754;SDS011;26385;48.470;7.938;2022-07-29T11:20:30;5.45;;;3.22;;
20754;SDS011;26385;48.470;7.938;2022-07-29T11:28:34;4.80;;;3.35;;
20754;SDS011;26385;48.470;7.938;2022-07-29T11:31:03;5.60;;;3.40;;
20754;SDS011;26385;48.470;7.938;2022-07-29T11:33:30;3.55;;;3.25;;
20754;SDS011;26385;48.470;7.938;2022-07-29T11:36:07;4.13;;;3.63;;
20754;SDS011;26385;48.470;7.938;2022-07-29T11:38:34;5.53;;;3.53;;
20754;SDS011;26385;48.470;7.938;2022-07-29T11:41:19;4.78;;;3.50;;
20754;SDS011;26385;48.470;7.938;2022-07-29T11:43:51;4.78;;;3.78;;
20754;SDS011;26385;48.470;7.938;2022-07-29T11:49:12;6.50;;;3.83;;
20754;SDS011;26385;48.470;7.938;2022-07-29T11:51:38;6.50;;;3.40;;
20754;SDS011;26385;48.470;7.938;2022-07-29T11:54:04;4.32;;;3.90;;
20754;SDS011;26385;48.470;7.938;2022-07-29T11:56:33;3.80;;;3.15;;
20754;SDS011;26385;48.470;7.938;2022-07-29T11:59:05;8.50;;;6.85;;
20754;SDS011;26385;48.470;7.938;2022-07-29T12:01:31;6.45;;;4.63;;
20754;SDS011;26385;48.470;7.938;2022-07-29T12:04:06;11.38;;;10.15;;
20754;SDS011;26385;48.470;7.938;2022-07-29T12:06:35;6.25;;;4.47;;
20754;SDS011;26385;48.470;7.938;2022-07-29T12:09:06;6.65;;;5.28;;
20754;SDS011;26385;48.470;7.938;2022-07-29T12:11:32;4.35;;;3.95;;
20754;SDS011;26385;48.470;7.938;2022-07-29T12:13:58;4.03;;;3.60;;
20754;SDS011;26385;48.470;7.938;2022-07-29T12:16:23;5.03;;;3.70;;
20754;SDS011;26385;48.470;7.938;2022-07-29T12:19:00;4.03;;;3.38;;
20754;SDS011;26385;48.470;7.938;2022-07-29T12:21:27;4.22;;;3.35;;
20754;SDS011;26385;48.470;7.938;2022-07-29T12:23:53;7.88;;;3.17;;
20754;SDS011;26385;48.470;7.938;2022-07-29T12:26:19;4.30;;;3.20;;
20754;SDS011;26385;48.470;7.938;2022-07-29T12:28:45;3.50;;;3.20;;
20754;SDS011;26385;48.470;7.938;2022-07-29T12:31:14;3.90;;;3.03;;
20754;SDS011;26385;48.470;7.938;2022-07-29T12:33:40;4.75;;;3.60;;
20754;SDS011;26385;48.470;7.938;2022-07-29T12:36:06;6.55;;;3.20;;
20754;SDS011;26385;48.470;7.938;2022-07-29T12:38:32;5.20;;;3.40;;
20754;SDS011;26385;48.470;7.938;2022-07-29T12:40:59;8.18;;;3.50;;
20754;SDS011;26385;48.470;7.938;2022-07-29T12:43:25;5.80;;;3.45;;
20754;SDS011;26385;48.470;7.938;2022-07-29T12:45:51;7.68;;;3.53;;
20754;SDS011;26385;48.470;7.938;2022-07-29T12:48:37;4.07;;;3.20;;
20754;SDS011;26385;48.470;7.938;2022-07-29T12:51:05;3.30;;;3.00;;
20754;SDS011;26385;48.470;7.938;2022-07-29T12:53:32;5.75;;;3.50;;
20754;SDS011;26385;48.470;7.938;2022-07-29T12:55:58;4.03;;;3.33;;
20754;SDS011;26385;48.470;7.938;2022-07-29T12:58:36;5.15;;;3.28;;
20754;SDS011;26385;48.470;7.938;2022-07-29T13:01:04;3.38;;;3.03;;
20754;SDS011;26385;48.470;7.938;2022-07-29T13:03:46;4.53;;;3.10;;
20754;SDS011;26385;48.470;7.938;2022-07-29T13:06:31;5.85;;;3.25;;
20754;SDS011;26385;48.470;7.938;2022-07-29T13:08:58;5.88;;;3.00;;
20754;SDS011;26385;48.470;7.938;2022-07-29T13:11:31;3.67;;;3.00;;
20754;SDS011;26385;48.470;7.938;2022-07-29T13:14:00;5.70;;;3.00;;
20754;SDS011;26385;48.470;7.938;2022-07-29T13:16:25;4.07;;;3.00;;
20754;SDS011;26385;48.470;7.938;2022-07-29T13:19:02;4.37;;;3.10;;
20754;SDS011;26385;48.470;7.938;2022-07-29T13:21:30;7.78;;;3.30;;
20754;SDS011;26385;48.470;7.938;2022-07-29T13:23:55;5.90;;;3.65;;
20754;SDS011;26385;48.470;7.938;2022-07-29T13:26:20;3.53;;;3.20;;
20754;SDS011;26385;48.470;7.938;2022-07-29T13:28:45;4.28;;;3.20;;
20754;SDS011;26385;48.470;7.938;2022-07-29T13:31:11;5.23;;;3.30;;
20754;SDS011;26385;48.470;7.938;2022-07-29T13:33:36;3.60;;;3.00;;
20754;SDS011;26385;48.470;7.938;2022-07-29T13:36:01;5.83;;;3.30;;
20754;SDS011;26385;48.470;7.938;2022-07-29T13:38:26;3.40;;;3.10;;
20754;SDS011;26385;48.470;7.938;2022-07-29T13:40:52;4.72;;;3.15;;
20754;SDS011;26385;48.470;7.938;2022-07-29T13:43:17;6.20;;;3.30;;
20754;SDS011;26385;48.470;7.938;2022-07-29T13:45:42;6.20;;;3.17;;
20754;SDS011;26385;48.470;7.938;2022-07-29T13:48:08;5.00;;;3.37;;
20754;SDS011;26385;48.470;7.938;2022-07-29T13:50:33;4.73;;;3.13;;
20754;SDS011;26385;48.470;7.938;2022-07-29T13:52:58;4.30;;;3.00;;
20754;SDS011;26385;48.470;7.938;2022-07-29T13:55:23;9.48;;;3.10;;
20754;SDS011;26385;48.470;7.938;2022-07-29T13:57:49;4.90;;;3.03;;
20754;SDS011;26385;48.470;7.938;2022-07-29T14:00:15;5.47;;;3.10;;
20754;SDS011;26385;48.470;7.938;2022-07-29T14:02:41;5.13;;;2.95;;
20754;SDS011;26385;48.470;7.938;2022-07-29T14:05:06;3.38;;;2.72;;
20754;SDS011;26385;48.470;7.938;2022-07-29T14:07:33;3.75;;;3.10;;
20754;SDS011;26385;48.470;7.938;2022-07-29T14:09:58;6.10;;;2.83;;
20754;SDS011;26385;48.470;7.938;2022-07-29T14:12:23;5.95;;;3.40;;
20754;SDS011;26385;48.470;7.938;2022-07-29T14:14:49;7.60;;;3.10;;
20754;SDS011;26385;48.470;7.938;2022-07-29T14:17:14;3.42;;;2.67;;
20754;SDS011;26385;48.470;7.938;2022-07-29T14:19:40;3.42;;;3.13;;
20754;SDS011;26385;48.470;7.938;2022-07-29T14:22:06;8.25;;;3.30;;
20754;SDS011;26385;48.470;7.938;2022-07-29T14:24:32;5.47;;;3.03;;
20754;SDS011;26385;48.470;7.938;2022-07-29T14:26:57;8.52;;;2.80;;
20754;SDS011;26385;48.470;7.938;2022-07-29T14:29:23;4.55;;;2.80;;
20754;SDS011;26385;48.470;7.938;2022-07-29T14:31:48;4.53;;;2.60;;
20754;SDS011;26385;48.470;7.938;2022-07-29T14:34:13;4.57;;;2.77;;
20754;SDS011;26385;48.470;7.938;2022-07-29T14:36:40;3.53;;;2.40;;
20754;SDS011;26385;48.470;7.938;2022-07-29T14:39:05;4.75;;;2.50;;
20754;SDS011;26385;48.470;7.938;2022-07-29T14:41:31;3.67;;;2.10;;
20754;SDS011;26385;48.470;7.938;2022-07-29T14:43:56;4.83;;;2.70;;
20754;SDS011;26385;48.470;7.938;2022-07-29T14:46:22;3.85;;;2.58;;
20754;SDS011;26385;48.470;7.938;2022-07-29T14:48:47;3.47;;;2.67;;
20754;SDS011;26385;48.470;7.938;2022-07-29T14:51:13;3.67;;;2.80;;
20754;SDS011;26385;48.470;7.938;2022-07-29T14:53:38;4.50;;;2.60;;
20754;SDS011;26385;48.470;7.938;2022-07-29T14:56:03;4.17;;;2.40;;
20754;SDS011;26385;48.470;7.938;2022-07-29T14:58:29;6.57;;;2.88;;
20754;SDS011;26385;48.470;7.938;2022-07-29T15:00:54;4.83;;;2.77;;
20754;SDS011;26385;48.470;7.938;2022-07-29T15:03:20;5.30;;;2.33;;
20754;SDS011;26385;48.470;7.938;2022-07-29T15:05:45;4.55;;;2.60;;
20754;SDS011;26385;48.470;7.938;2022-07-29T15:08:10;3.17;;;2.30;;
20754;SDS011;26385;48.470;7.938;2022-07-29T15:10:36;5.03;;;2.53;;
20754;SDS011;26385;48.470;7.938;2022-07-29T15:13:01;4.47;;;2.70;;
20754;SDS011;26385;48.470;7.938;2022-07-29T15:15:26;6.95;;;2.50;;
20754;SDS011;26385;48.470;7.938;2022-07-29T15:17:52;5.30;;;2.33;;
20754;SDS011;26385;48.470;7.938;2022-07-29T15:20:17;3.88;;;2.70;;
20754;SDS011;26385;48.470;7.938;2022-07-29T15:22:43;5.55;;;2.58;;
20754;SDS011;26385;48.470;7.938;2022-07-29T15:25:08;4.90;;;2.88;;
20754;SDS011;26385;48.470;7.938;2022-07-29T15:27:34;3.78;;;2.50;;